createdAt,value
2018-04-13T00:00:15.885Z,87.97
2018-04-13T00:01:15.827Z,87.49
2018-04-13T00:02:15.806Z,87.97
2018-04-13T00:03:15.613Z,88.07
2018-04-13T00:04:15.522Z,88.35
2018-04-13T00:05:15.435Z,87.30
2018-04-13T00:06:15.345Z,86.63
2018-04-13T00:07:15.282Z,87.40
2018-04-13T00:08:15.163Z,88.45
2018-04-13T00:09:15.165Z,87.49
2018-04-13T00:10:14.982Z,87.40
2018-04-13T00:11:14.893Z,87.59
2018-04-13T00:12:14.830Z,86.44
2018-04-13T00:13:14.711Z,87.59
2018-04-13T00:14:14.619Z,87.30
2018-04-13T00:15:14.527Z,86.92
2018-04-13T00:16:14.534Z,87.40
2018-04-13T00:17:14.377Z,87.49
2018-04-13T00:18:14.255Z,87.59
2018-04-13T00:19:14.168Z,86.92
2018-04-13T00:20:14.077Z,86.73
2018-04-13T00:21:13.984Z,86.87
2018-04-13T00:22:13.935Z,87.44
2018-04-13T00:23:13.898Z,86.68
2018-04-13T00:24:13.711Z,87.25
2018-04-13T00:25:13.622Z,87.02
2018-04-13T00:26:13.530Z,85.77
2018-04-13T00:27:13.473Z,86.49
2018-04-13T00:28:13.354Z,87.59
2018-04-13T00:29:13.262Z,86.87
2018-04-13T00:30:13.267Z,86.49
2018-04-13T00:31:13.079Z,86.96
2018-04-13T00:32:13.021Z,86.58
2018-04-13T00:33:12.899Z,85.82
2018-04-13T00:34:12.809Z,85.72
2018-04-13T00:35:12.718Z,85.63
2018-04-13T00:36:12.624Z,85.82
2018-04-13T00:37:12.564Z,86.20
2018-04-13T00:38:12.446Z,85.72
2018-04-13T00:39:12.354Z,86.49
2018-04-13T00:40:12.266Z,86.01
2018-04-13T00:41:12.172Z,86.39
2018-04-13T00:42:12.109Z,86.10
2018-04-13T00:43:11.995Z,86.39
2018-04-13T00:44:12.001Z,86.30
2018-04-13T00:45:11.809Z,86.01
2018-04-13T00:46:11.718Z,86.01
2018-04-13T00:47:11.660Z,85.53
2018-04-13T00:48:11.538Z,85.53
2018-04-13T00:49:11.447Z,85.91
2018-04-13T00:50:11.356Z,85.72
2018-04-13T00:51:11.263Z,85.15
2018-04-13T00:52:11.205Z,85.53
2018-04-13T00:53:11.101Z,85.91
2018-04-13T00:54:10.994Z,85.91
2018-04-13T00:55:10.901Z,85.82
2018-04-13T00:56:10.812Z,85.63
2018-04-13T00:57:10.752Z,86.30
2018-04-13T00:58:10.632Z,86.68
2018-04-13T00:59:10.540Z,86.39
2018-04-13T01:00:10.448Z,86.20
2018-04-13T01:01:10.358Z,86.68
2018-04-13T01:02:10.298Z,85.72
2018-04-13T01:03:10.175Z,86.77
2018-04-13T01:04:10.084Z,86.77
2018-04-13T01:05:09.997Z,86.82
2018-04-13T01:06:09.908Z,86.68
2018-04-13T01:07:09.841Z,86.30
2018-04-13T01:08:09.724Z,86.58
2018-04-13T01:09:09.633Z,85.63
2018-04-13T01:10:09.537Z,85.53
2018-04-13T01:11:09.450Z,86.20
2018-04-13T01:12:09.390Z,86.49
2018-04-13T01:13:09.268Z,86.30
2018-04-13T01:14:09.177Z,85.91
2018-04-13T01:15:09.086Z,86.44
2018-04-13T01:16:08.995Z,86.01
2018-04-13T01:17:08.938Z,86.25
2018-04-13T01:18:08.809Z,86.73
2018-04-13T01:19:08.722Z,86.68
2018-04-13T01:20:08.632Z,86.92
2018-04-13T01:21:08.542Z,86.58
2018-04-13T01:22:08.448Z,86.16
2018-04-13T01:23:08.390Z,86.25
2018-04-13T01:24:08.279Z,85.68
2018-04-13T01:25:08.174Z,85.82
2018-04-13T01:26:08.084Z,85.72
2018-04-13T01:27:07.999Z,86.25
2018-04-13T01:28:07.935Z,86.25
2018-04-13T01:29:07.814Z,85.82
2018-04-13T01:30:07.722Z,86.01
2018-04-13T01:31:07.635Z,85.82
2018-04-13T01:32:07.543Z,86.30
2018-04-13T01:33:07.482Z,85.58
2018-04-13T01:34:07.361Z,85.49
2018-04-13T01:35:07.270Z,85.68
2018-04-13T01:36:07.175Z,86.39
2018-04-13T01:37:07.088Z,86.87
2018-04-13T01:38:07.021Z,85.91
2018-04-13T01:39:06.905Z,85.68
2018-04-13T01:40:06.811Z,86.44
2018-04-13T01:41:06.723Z,86.82
2018-04-13T01:42:06.633Z,86.63
2018-04-13T01:43:06.570Z,86.54
2018-04-13T01:44:06.449Z,86.44
2018-04-13T01:45:06.370Z,86.82
2018-04-13T01:46:06.269Z,86.63
2018-04-13T01:47:06.173Z,86.92
2018-04-13T01:48:06.117Z,86.82
2018-04-13T01:49:05.992Z,86.63
2018-04-13T01:50:05.903Z,86.63
2018-04-13T01:51:05.810Z,86.35
2018-04-13T01:52:05.721Z,86.25
2018-04-13T01:53:05.663Z,86.06
2018-04-13T01:54:05.543Z,86.35
2018-04-13T01:55:05.446Z,86.44
2018-04-13T01:56:05.355Z,87.40
2018-04-13T01:57:05.265Z,86.06
2018-04-13T01:58:05.204Z,86.82
2018-04-13T01:59:05.082Z,86.54
2018-04-13T02:00:05.088Z,86.44
2018-04-13T02:01:04.905Z,86.82
2018-04-13T02:02:04.809Z,87.02
2018-04-13T02:03:04.744Z,87.02
2018-04-13T02:04:04.626Z,86.82
2018-04-13T02:05:04.538Z,86.73
2018-04-13T02:06:04.442Z,86.73
2018-04-13T02:07:04.355Z,86.35
2018-04-13T02:08:04.291Z,87.02
2018-04-13T02:09:04.172Z,87.40
2018-04-13T02:10:04.079Z,87.35
2018-04-13T02:11:03.987Z,87.45
2018-04-13T02:12:03.896Z,87.54
2018-04-13T02:13:03.839Z,87.74
2018-04-13T02:14:03.809Z,88.02
2018-04-13T02:15:03.626Z,87.64
2018-04-13T02:16:03.532Z,87.93
2018-04-13T02:17:03.439Z,87.16
2018-04-13T02:18:03.378Z,87.54
2018-04-13T02:19:03.257Z,87.54
2018-04-13T02:20:03.165Z,87.40
2018-04-13T02:21:03.166Z,87.40
2018-04-13T02:22:02.981Z,87.02
2018-04-13T02:23:02.924Z,87.68
2018-04-13T02:24:02.799Z,87.68
2018-04-13T02:25:02.708Z,86.63
2018-04-13T02:26:02.627Z,86.73
2018-04-13T02:27:02.524Z,87.40
2018-04-13T02:28:02.532Z,87.02
2018-04-13T02:29:02.376Z,87.02
2018-04-13T02:30:02.249Z,86.63
2018-04-13T02:31:02.160Z,87.11
2018-04-13T02:32:02.066Z,87.68
2018-04-13T02:33:02.021Z,87.40
2018-04-13T02:34:01.888Z,87.21
2018-04-13T02:35:01.902Z,87.49
2018-04-13T02:36:01.712Z,87.30
2018-04-13T02:37:01.613Z,87.59
2018-04-13T02:38:01.525Z,87.68
2018-04-13T02:39:01.458Z,87.64
2018-04-13T02:40:01.344Z,87.83
2018-04-13T02:41:01.251Z,87.74
2018-04-13T02:42:01.245Z,87.83
2018-04-13T02:43:01.067Z,87.40
2018-04-13T02:44:01.007Z,87.30
2018-04-13T02:45:00.881Z,87.21
2018-04-13T02:46:00.788Z,87.59
2018-04-13T02:47:00.698Z,87.30
2018-04-13T02:48:00.610Z,87.40
2018-04-13T02:49:00.639Z,87.68
2018-04-13T02:50:00.425Z,87.59
2018-04-13T02:51:00.330Z,87.21
2018-04-13T02:52:00.242Z,87.59
2018-04-13T02:53:00.149Z,87.49
2018-04-13T02:54:00.083Z,87.30
2018-04-13T02:54:59.965Z,87.78
2018-04-13T02:55:59.967Z,87.59
2018-04-13T02:56:59.781Z,87.59
2018-04-13T02:57:59.691Z,87.59
2018-04-13T02:58:59.630Z,87.68
2018-04-13T02:59:59.506Z,87.35
2018-04-13T03:00:59.416Z,87.97
2018-04-13T03:01:59.328Z,87.59
2018-04-13T03:02:59.327Z,87.78
2018-04-13T03:03:59.173Z,87.59
2018-04-13T03:04:59.052Z,87.40
2018-04-13T03:05:58.957Z,87.30
2018-04-13T03:06:58.867Z,87.49
2018-04-13T03:07:58.774Z,86.73
2018-04-13T03:08:58.718Z,87.59
2018-04-13T03:09:58.692Z,87.68
2018-04-13T03:10:58.503Z,87.59
2018-04-13T03:11:58.412Z,87.40
2018-04-13T03:12:58.320Z,86.92
2018-04-13T03:13:58.262Z,87.30
2018-04-13T03:14:58.136Z,87.59
2018-04-13T03:15:58.044Z,87.30
2018-04-13T03:16:58.048Z,87.59
2018-04-13T03:17:57.866Z,87.78
2018-04-13T03:18:57.807Z,87.40
2018-04-13T03:19:57.680Z,87.59
2018-04-13T03:20:57.592Z,87.49
2018-04-13T03:21:57.498Z,87.49
2018-04-13T03:22:57.409Z,87.02
2018-04-13T03:23:57.350Z,87.21
2018-04-13T03:24:57.226Z,87.40
2018-04-13T03:25:57.132Z,87.30
2018-04-13T03:26:57.043Z,87.40
2018-04-13T03:27:56.965Z,87.59
2018-04-13T03:28:56.891Z,87.40
2018-04-13T03:29:56.767Z,87.40
2018-04-13T03:30:56.775Z,87.59
2018-04-13T03:31:56.587Z,87.02
2018-04-13T03:32:56.495Z,86.96
2018-04-13T03:33:56.434Z,86.30
2018-04-13T03:34:56.315Z,86.58
2018-04-13T03:35:56.221Z,86.82
2018-04-13T03:36:56.129Z,86.54
2018-04-13T03:37:56.837Z,87.68
2018-04-13T03:38:55.978Z,87.68
2018-04-13T03:39:55.857Z,86.92
2018-04-13T03:40:55.769Z,87.40
2018-04-13T03:41:55.674Z,87.40
2018-04-13T03:42:55.583Z,86.82
2018-04-13T03:43:55.495Z,87.21
2018-04-13T03:44:55.441Z,87.21
2018-04-13T03:45:55.312Z,86.73
2018-04-13T03:46:55.221Z,86.63
2018-04-13T03:47:55.128Z,86.63
2018-04-13T03:48:55.040Z,87.49
2018-04-13T03:49:54.983Z,87.40
2018-04-13T03:50:54.855Z,87.21
2018-04-13T03:51:54.764Z,87.68
2018-04-13T03:52:54.675Z,87.02
2018-04-13T03:53:54.586Z,87.21
2018-04-13T03:54:54.525Z,87.59
2018-04-13T03:55:54.399Z,87.59
2018-04-13T03:56:54.308Z,87.21
2018-04-13T03:57:54.216Z,86.73
2018-04-13T03:58:54.127Z,86.63
2018-04-13T03:59:54.068Z,86.73
2018-04-13T04:00:53.942Z,87.21
2018-04-13T04:01:53.854Z,87.49
2018-04-13T04:02:53.763Z,87.78
2018-04-13T04:03:53.672Z,87.21
2018-04-13T04:04:53.611Z,86.73
2018-04-13T04:05:53.491Z,87.30
2018-04-13T04:06:53.399Z,87.78
2018-04-13T04:07:53.307Z,87.21
2018-04-13T04:08:53.217Z,87.68
2018-04-13T04:09:53.158Z,87.59
2018-04-13T04:10:53.031Z,87.21
2018-04-13T04:11:52.943Z,86.82
2018-04-13T04:12:52.851Z,86.82
2018-04-13T04:13:52.758Z,87.59
2018-04-13T04:14:52.701Z,87.40
2018-04-13T04:15:52.577Z,87.21
2018-04-13T04:16:52.487Z,86.10
2018-04-13T04:17:52.400Z,86.39
2018-04-13T04:18:52.304Z,86.77
2018-04-13T04:19:52.246Z,86.58
2018-04-13T04:20:52.123Z,87.68
2018-04-13T04:21:52.030Z,86.68
2018-04-13T04:22:51.943Z,86.77
2018-04-13T04:23:51.850Z,86.77
2018-04-13T04:24:51.789Z,86.68
2018-04-13T04:25:51.670Z,86.58
2018-04-13T04:26:51.582Z,86.96
2018-04-13T04:27:51.487Z,87.15
2018-04-13T04:28:51.403Z,86.68
2018-04-13T04:29:51.334Z,86.96
2018-04-13T04:30:51.214Z,86.49
2018-04-13T04:31:51.127Z,87.35
2018-04-13T04:32:51.030Z,86.87
2018-04-13T04:33:50.941Z,87.44
2018-04-13T04:34:50.853Z,87.06
2018-04-13T04:35:50.788Z,86.49
2018-04-13T04:36:50.671Z,86.10
2018-04-13T04:37:50.576Z,86.87
2018-04-13T04:38:50.487Z,86.77
2018-04-13T04:39:50.507Z,86.68
2018-04-13T04:40:50.337Z,86.96
2018-04-13T04:41:50.215Z,87.06
2018-04-13T04:42:50.124Z,86.49
2018-04-13T04:43:50.034Z,87.06
2018-04-13T04:44:49.946Z,87.06
2018-04-13T04:45:49.878Z,87.44
2018-04-13T04:46:49.762Z,86.68
2018-04-13T04:47:49.668Z,86.77
2018-04-13T04:48:49.581Z,86.87
2018-04-13T04:49:49.490Z,86.58
2018-04-13T04:50:49.430Z,86.96
2018-04-13T04:51:49.853Z,87.06
2018-04-13T04:52:49.220Z,86.39
2018-04-13T04:53:49.213Z,87.35
2018-04-13T04:54:49.036Z,86.77
2018-04-13T04:55:48.978Z,87.63
2018-04-13T04:56:48.857Z,86.01
2018-04-13T04:57:48.762Z,87.06
2018-04-13T04:58:48.676Z,86.77
2018-04-13T04:59:48.579Z,87.06
2018-04-13T05:00:48.615Z,86.68
2018-04-13T05:01:48.408Z,86.58
2018-04-13T05:02:48.310Z,87.06
2018-04-13T05:03:48.220Z,86.68
2018-04-13T05:04:48.128Z,87.25
2018-04-13T05:05:48.065Z,87.63
2018-04-13T05:06:47.947Z,87.82
2018-04-13T05:07:47.948Z,87.73
2018-04-13T05:08:47.765Z,87.63
2018-04-13T05:09:47.671Z,86.96
2018-04-13T05:10:47.613Z,86.96
2018-04-13T05:11:47.502Z,87.06
2018-04-13T05:12:47.404Z,86.87
2018-04-13T05:13:47.311Z,87.54
2018-04-13T05:14:47.219Z,86.01
2018-04-13T05:15:47.160Z,86.58
2018-04-13T05:16:47.038Z,87.25
2018-04-13T05:17:46.946Z,86.82
2018-04-13T05:18:46.857Z,86.15
2018-04-13T05:19:46.767Z,87.06
2018-04-13T05:20:46.711Z,86.58
2018-04-13T05:21:46.582Z,86.24
2018-04-13T05:22:46.493Z,86.30
2018-04-13T05:23:46.407Z,86.30
2018-04-13T05:24:46.311Z,87.01
2018-04-13T05:25:46.253Z,86.34
2018-04-13T05:26:46.137Z,87.25
2018-04-13T05:27:46.040Z,86.68
2018-04-13T05:28:45.951Z,86.53
2018-04-13T05:29:45.858Z,86.91
2018-04-13T05:30:45.803Z,85.58
2018-04-13T05:31:45.679Z,86.53
2018-04-13T05:32:46.365Z,86.72
2018-04-13T05:33:45.505Z,86.87
2018-04-13T05:34:45.408Z,86.91
2018-04-13T05:35:45.347Z,85.82
2018-04-13T05:36:45.226Z,87.10
2018-04-13T05:37:45.135Z,87.44
2018-04-13T05:38:45.049Z,86.24
2018-04-13T05:39:44.956Z,86.63
2018-04-13T05:40:44.898Z,86.53
2018-04-13T05:41:44.777Z,86.63
2018-04-13T05:42:44.685Z,87.01
2018-04-13T05:43:44.595Z,86.72
2018-04-13T05:44:44.504Z,86.91
2018-04-13T05:45:44.416Z,87.35
2018-04-13T05:46:44.354Z,87.39
2018-04-13T05:47:44.248Z,87.44
2018-04-13T05:48:44.145Z,87.73
2018-04-13T05:49:44.048Z,87.44
2018-04-13T05:50:44.345Z,87.92
2018-04-13T05:51:43.901Z,87.63
2018-04-13T05:52:43.781Z,87.82
2018-04-13T05:53:43.689Z,88.11
2018-04-13T05:54:43.601Z,87.92
2018-04-13T05:55:43.513Z,88.49
2018-04-13T05:56:43.453Z,87.82
2018-04-13T05:57:43.425Z,87.82
2018-04-13T05:58:43.241Z,88.40
2018-04-13T05:59:43.148Z,88.59
2018-04-13T06:00:43.062Z,88.49
2018-04-13T06:01:43.005Z,88.49
2018-04-13T06:02:42.877Z,88.40
2018-04-13T06:03:42.789Z,89.64
2018-04-13T06:04:42.809Z,88.59
2018-04-13T06:05:42.606Z,88.40
2018-04-13T06:06:42.550Z,88.49
2018-04-13T06:07:42.422Z,89.16
2018-04-13T06:08:42.342Z,88.40
2018-04-13T06:09:42.247Z,89.54
2018-04-13T06:10:42.156Z,89.25
2018-04-13T06:11:42.094Z,89.45
2018-04-13T06:12:41.975Z,89.06
2018-04-13T06:13:41.882Z,89.35
2018-04-13T06:14:41.804Z,89.35
2018-04-13T06:15:41.704Z,89.35
2018-04-13T06:16:41.642Z,88.87
2018-04-13T06:17:41.520Z,88.97
2018-04-13T06:18:41.522Z,89.54
2018-04-13T06:19:41.344Z,89.73
2018-04-13T06:20:41.250Z,88.78
2018-04-13T06:21:41.189Z,89.73
2018-04-13T06:22:41.068Z,89.73
2018-04-13T06:23:40.987Z,89.25
2018-04-13T06:24:40.890Z,89.73
2018-04-13T06:25:40.800Z,89.64
2018-04-13T06:26:40.735Z,89.16
2018-04-13T06:27:40.619Z,88.59
2018-04-13T06:28:40.532Z,89.64
2018-04-13T06:29:40.433Z,89.92
2018-04-13T06:30:40.342Z,89.06
2018-04-13T06:31:40.285Z,89.64
2018-04-13T06:32:40.164Z,89.35
2018-04-13T06:33:40.073Z,89.64
2018-04-13T06:34:39.986Z,89.83
2018-04-13T06:35:39.891Z,89.16
2018-04-13T06:36:39.834Z,90.11
2018-04-13T06:37:39.713Z,90.31
2018-04-13T06:38:39.620Z,89.92
2018-04-13T06:39:39.532Z,89.92
2018-04-13T06:40:39.441Z,90.21
2018-04-13T06:41:39.379Z,90.31
2018-04-13T06:42:39.259Z,90.69
2018-04-13T06:43:39.217Z,89.54
2018-04-13T06:44:39.080Z,90.69
2018-04-13T06:45:38.987Z,90.55
2018-04-13T06:46:38.929Z,90.83
2018-04-13T06:47:38.809Z,90.73
2018-04-13T06:48:38.722Z,90.55
2018-04-13T06:49:38.625Z,90.93
2018-04-13T06:50:38.534Z,91.31
2018-04-13T06:51:38.472Z,90.26
2018-04-13T06:52:38.355Z,90.36
2018-04-13T06:53:38.261Z,90.07
2018-04-13T06:54:38.174Z,91.21
2018-04-13T06:55:38.082Z,90.55
2018-04-13T06:56:38.052Z,90.64
2018-04-13T06:57:37.901Z,90.26
2018-04-13T06:58:37.810Z,91.12
2018-04-13T06:59:37.719Z,91.21
2018-04-13T07:00:37.634Z,90.36
2018-04-13T07:01:37.539Z,91.12
2018-04-13T07:02:37.475Z,91.31
2018-04-13T07:03:37.355Z,91.21
2018-04-13T07:04:37.267Z,90.26
2018-04-13T07:05:37.177Z,91.41
2018-04-13T07:06:37.086Z,90.73
2018-04-13T07:07:37.040Z,89.97
2018-04-13T07:08:36.904Z,90.55
2018-04-13T07:09:36.809Z,90.55
2018-04-13T07:10:36.719Z,90.36
2018-04-13T07:11:36.634Z,90.93
2018-04-13T07:12:36.573Z,90.69
2018-04-13T07:13:36.451Z,91.50
2018-04-13T07:14:36.361Z,90.31
2018-04-13T07:15:36.269Z,90.88
2018-04-13T07:16:36.178Z,90.45
2018-04-13T07:17:36.116Z,90.59
2018-04-13T07:18:35.995Z,90.21
2018-04-13T07:19:35.903Z,90.59
2018-04-13T07:20:35.815Z,90.21
2018-04-13T07:21:35.722Z,90.69
2018-04-13T07:22:35.661Z,90.40
2018-04-13T07:23:35.541Z,91.16
2018-04-13T07:24:35.449Z,90.78
2018-04-13T07:25:35.357Z,90.11
2018-04-13T07:26:35.269Z,90.59
2018-04-13T07:27:35.203Z,91.07
2018-04-13T07:28:35.087Z,90.78
2018-04-13T07:29:34.995Z,91.36
2018-04-13T07:30:34.905Z,90.59
2018-04-13T07:31:34.965Z,90.11
2018-04-13T07:32:34.758Z,90.50
2018-04-13T07:33:34.633Z,91.45
2018-04-13T07:34:34.607Z,90.21
2018-04-13T07:35:34.453Z,90.69
2018-04-13T07:36:34.361Z,90.69
2018-04-13T07:37:34.297Z,91.26
2018-04-13T07:38:34.179Z,90.31
2018-04-13T07:39:34.090Z,90.69
2018-04-13T07:40:33.998Z,90.78
2018-04-13T07:41:34.001Z,90.50
2018-04-13T07:42:33.847Z,90.50
2018-04-13T07:43:33.974Z,90.31
2018-04-13T07:44:33.640Z,91.36
2018-04-13T07:45:33.555Z,90.59
2018-04-13T07:46:33.455Z,90.59
2018-04-13T07:47:33.533Z,90.97
2018-04-13T07:48:33.367Z,90.50
2018-04-13T07:49:33.184Z,91.36
2018-04-13T07:50:33.095Z,90.50
2018-04-13T07:51:33.005Z,90.88
2018-04-13T07:52:32.948Z,90.50
2018-04-13T07:53:32.822Z,90.50
2018-04-13T07:54:32.730Z,90.59
2018-04-13T07:55:32.741Z,90.59
2018-04-13T07:56:32.553Z,91.36
2018-04-13T07:57:32.492Z,91.45
2018-04-13T07:58:32.831Z,90.59
2018-04-13T07:59:32.300Z,90.97
2018-04-13T08:00:32.191Z,90.88
2018-04-13T08:01:32.103Z,91.36
2018-04-13T08:02:32.135Z,90.50
2018-04-13T08:03:31.923Z,90.40
2018-04-13T08:04:31.829Z,91.07
2018-04-13T08:05:31.737Z,90.59
2018-04-13T08:06:31.809Z,91.36
2018-04-13T08:07:31.594Z,91.55
2018-04-13T08:08:31.483Z,91.36
2018-04-13T08:09:31.497Z,91.16
2018-04-13T08:10:31.290Z,91.64
2018-04-13T08:11:31.216Z,91.16
2018-04-13T08:12:31.136Z,91.26
2018-04-13T08:13:31.018Z,90.78
2018-04-13T08:14:30.932Z,91.26
2018-04-13T08:15:30.836Z,91.69
2018-04-13T08:16:30.844Z,90.59
2018-04-13T08:17:30.659Z,91.83
2018-04-13T08:18:30.598Z,91.78
2018-04-13T08:19:30.481Z,91.69
2018-04-13T08:20:30.391Z,92.17
2018-04-13T08:21:30.298Z,92.65
2018-04-13T08:22:30.209Z,92.17
2018-04-13T08:23:30.240Z,91.78
2018-04-13T08:24:30.026Z,91.50
2018-04-13T08:25:29.937Z,92.26
2018-04-13T08:26:29.844Z,91.88
2018-04-13T08:27:29.755Z,92.55
2018-04-13T08:28:29.694Z,92.07
2018-04-13T08:29:29.571Z,92.36
2018-04-13T08:30:29.589Z,92.26
2018-04-13T08:31:29.393Z,92.83
2018-04-13T08:32:29.304Z,92.55
2018-04-13T08:33:29.242Z,92.07
2018-04-13T08:34:29.122Z,92.74
2018-04-13T08:35:29.071Z,91.98
2018-04-13T08:36:28.941Z,91.88
2018-04-13T08:37:28.944Z,91.88
2018-04-13T08:38:28.803Z,92.74
2018-04-13T08:39:28.668Z,91.12
2018-04-13T08:40:28.597Z,92.26
2018-04-13T08:41:28.491Z,92.65
2018-04-13T08:42:28.398Z,92.26
2018-04-13T08:43:28.382Z,91.98
2018-04-13T08:44:28.305Z,91.41
2018-04-13T08:45:28.128Z,92.36
2018-04-13T08:46:28.040Z,91.88
2018-04-13T08:47:28.044Z,91.98
2018-04-13T08:48:27.886Z,91.78
2018-04-13T08:49:27.817Z,91.50
2018-04-13T08:50:27.677Z,91.69
2018-04-13T08:51:27.691Z,92.26
2018-04-13T08:52:27.518Z,92.74
2018-04-13T08:53:27.432Z,91.83
2018-04-13T08:54:27.308Z,91.74
2018-04-13T08:55:27.221Z,90.88
2018-04-13T08:56:27.131Z,92.31
2018-04-13T08:57:27.038Z,92.41
2018-04-13T08:58:26.981Z,90.97
2018-04-13T08:59:26.857Z,91.83
2018-04-13T09:00:26.769Z,91.36
2018-04-13T09:01:26.677Z,92.50
2018-04-13T09:02:26.586Z,91.74
2018-04-13T09:03:26.528Z,92.41
2018-04-13T09:04:26.405Z,92.50
2018-04-13T09:05:26.316Z,91.83
2018-04-13T09:06:26.256Z,91.93
2018-04-13T09:07:26.136Z,91.64
2018-04-13T09:08:26.074Z,92.60
2018-04-13T09:09:25.956Z,91.74
2018-04-13T09:10:25.864Z,92.69
2018-04-13T09:11:25.774Z,91.55
2018-04-13T09:12:25.684Z,92.50
2018-04-13T09:13:25.625Z,91.74
2018-04-13T09:14:25.505Z,91.64
2018-04-13T09:15:25.411Z,92.41
2018-04-13T09:16:25.324Z,92.31
2018-04-13T09:17:25.232Z,91.97
2018-04-13T09:18:25.171Z,91.97
2018-04-13T09:19:25.070Z,92.69
2018-04-13T09:20:24.963Z,92.30
2018-04-13T09:21:24.872Z,92.59
2018-04-13T09:22:24.779Z,92.16
2018-04-13T09:23:24.723Z,91.39
2018-04-13T09:24:24.602Z,92.83
2018-04-13T09:25:24.513Z,91.78
2018-04-13T09:26:24.426Z,91.49
2018-04-13T09:27:24.334Z,91.20
2018-04-13T09:28:24.247Z,91.39
2018-04-13T09:29:24.185Z,92.74
2018-04-13T09:30:24.065Z,91.49
2018-04-13T09:31:23.978Z,90.82
2018-04-13T09:32:23.896Z,92.07
2018-04-13T09:33:23.801Z,93.21
2018-04-13T09:34:23.740Z,92.64
2018-04-13T09:35:23.625Z,91.30
2018-04-13T09:36:23.533Z,91.20
2018-04-13T09:37:23.483Z,91.30
2018-04-13T09:38:23.359Z,92.59
2018-04-13T09:39:23.298Z,91.44
2018-04-13T09:40:23.178Z,91.73
2018-04-13T09:41:23.089Z,90.39
2018-04-13T09:42:23.008Z,90.44
2018-04-13T09:43:22.917Z,91.20
2018-04-13T09:44:22.905Z,91.30
2018-04-13T09:45:22.735Z,91.35
2018-04-13T09:46:22.650Z,91.25
2018-04-13T09:47:22.562Z,92.02
2018-04-13T09:48:22.471Z,91.45
2018-04-13T09:49:22.413Z,92.21
2018-04-13T09:50:22.295Z,91.16
2018-04-13T09:51:22.209Z,92.79
2018-04-13T09:52:22.117Z,92.11
2018-04-13T09:53:22.029Z,91.83
2018-04-13T09:54:21.975Z,91.93
2018-04-13T09:55:21.856Z,91.74
2018-04-13T09:56:21.767Z,91.74
2018-04-13T09:57:21.680Z,91.93
2018-04-13T09:58:21.588Z,92.11
2018-04-13T09:59:21.535Z,91.83
2018-04-13T10:00:21.417Z,91.83
2018-04-13T10:01:21.330Z,91.83
2018-04-13T10:02:21.239Z,91.64
2018-04-13T10:03:21.151Z,91.64
2018-04-13T10:04:21.094Z,91.64
2018-04-13T10:05:20.986Z,92.88
2018-04-13T10:06:20.883Z,92.21
2018-04-13T10:07:20.797Z,91.83
2018-04-13T10:08:20.706Z,91.74
2018-04-13T10:09:20.649Z,93.07
2018-04-13T10:10:20.528Z,92.02
2018-04-13T10:11:20.441Z,91.93
2018-04-13T10:12:20.353Z,92.16
2018-04-13T10:13:20.264Z,91.78
2018-04-13T10:14:20.293Z,92.40
2018-04-13T10:15:20.088Z,92.11
2018-04-13T10:16:19.998Z,92.21
2018-04-13T10:17:19.910Z,92.21
2018-04-13T10:18:19.819Z,92.36
2018-04-13T10:19:19.770Z,92.88
2018-04-13T10:20:19.642Z,92.69
2018-04-13T10:21:19.652Z,92.26
2018-04-13T10:22:19.464Z,92.55
2018-04-13T10:23:19.377Z,92.64
2018-04-13T10:24:19.315Z,92.36
2018-04-13T10:25:19.198Z,92.55
2018-04-13T10:26:19.107Z,92.64
2018-04-13T10:27:19.021Z,92.93
2018-04-13T10:28:19.024Z,93.12
2018-04-13T10:29:18.872Z,92.93
2018-04-13T10:30:18.753Z,91.88
2018-04-13T10:31:18.664Z,93.31
2018-04-13T10:32:18.576Z,92.74
2018-04-13T10:33:18.483Z,92.74
2018-04-13T10:34:18.428Z,93.26
2018-04-13T10:35:18.400Z,94.60
2018-04-13T10:36:18.935Z,92.88
2018-04-13T10:37:18.127Z,92.79
2018-04-13T10:38:18.037Z,93.07
2018-04-13T10:39:17.951Z,92.97
2018-04-13T10:40:17.889Z,92.88
2018-04-13T10:41:17.765Z,92.97
2018-04-13T10:42:17.771Z,93.84
2018-04-13T10:43:17.590Z,92.69
2018-04-13T10:44:17.504Z,93.79
2018-04-13T10:45:17.442Z,92.36
2018-04-13T10:46:17.321Z,92.88
2018-04-13T10:47:17.229Z,92.74
2018-04-13T10:48:17.142Z,93.60
2018-04-13T10:49:17.146Z,93.12
2018-04-13T10:50:16.991Z,90.83
2018-04-13T10:51:16.871Z,92.74
2018-04-13T10:52:16.780Z,92.16
2018-04-13T10:53:16.695Z,91.40
2018-04-13T10:54:16.600Z,91.69
2018-04-13T10:55:16.540Z,90.83
2018-04-13T10:56:16.522Z,92.74
2018-04-13T10:57:16.329Z,91.40
2018-04-13T10:58:16.243Z,90.25
2018-04-13T10:59:16.150Z,90.92
2018-04-13T11:00:16.090Z,91.93
2018-04-13T11:01:15.976Z,91.83
2018-04-13T11:02:15.884Z,92.30
2018-04-13T11:03:15.808Z,90.97
2018-04-13T11:04:15.701Z,93.16
2018-04-13T11:05:15.648Z,91.25
2018-04-13T11:06:15.524Z,90.97
2018-04-13T11:07:15.435Z,91.68
2018-04-13T11:08:15.345Z,91.20
2018-04-13T11:09:15.256Z,91.30
2018-04-13T11:10:15.243Z,91.73
2018-04-13T11:11:15.074Z,87.04
2018-04-13T11:12:14.987Z,89.19
2018-04-13T11:13:14.908Z,88.90
2018-04-13T11:14:14.809Z,87.80
2018-04-13T11:15:14.751Z,91.86
2018-04-13T11:16:14.633Z,86.49
2018-04-13T11:17:14.544Z,85.15
2018-04-13T11:18:14.454Z,85.72
2018-04-13T11:19:14.370Z,85.77
2018-04-13T11:20:14.324Z,83.75
2018-04-13T11:21:14.195Z,86.40
2018-04-13T11:22:14.105Z,85.63
2018-04-13T11:23:14.021Z,85.67
2018-04-13T11:24:13.931Z,83.33
2018-04-13T11:25:13.879Z,84.91
2018-04-13T11:26:13.760Z,83.70
2018-04-13T11:27:13.672Z,85.75
2018-04-13T11:28:13.587Z,81.65
2018-04-13T11:29:13.500Z,74.37
2018-04-13T11:30:13.444Z,81.67
2018-04-13T11:31:13.328Z,81.53
2018-04-13T11:32:13.242Z,79.28
2018-04-13T11:33:13.156Z,80.63
2018-04-13T11:34:13.074Z,77.46
2018-04-13T11:35:13.022Z,75.29
2018-04-13T11:36:12.903Z,78.78
2018-04-13T11:37:12.821Z,73.21
2018-04-13T11:38:12.735Z,75.71
2018-04-13T11:39:12.651Z,75.94
2018-04-13T11:40:12.600Z,77.00
2018-04-13T11:41:12.483Z,79.07
2018-04-13T11:42:12.396Z,75.48
2018-04-13T11:43:12.317Z,73.62
2018-04-13T11:44:12.234Z,74.54
2018-04-13T11:45:12.175Z,74.33
2018-04-13T11:46:12.063Z,74.73
2018-04-13T11:47:11.980Z,75.79
2018-04-13T11:48:11.897Z,76.25
2018-04-13T11:49:11.815Z,77.73
2018-04-13T11:50:11.758Z,72.03
2018-04-13T11:51:11.642Z,64.73
2018-04-13T11:52:11.563Z,67.29
2018-04-13T11:53:11.476Z,63.60
2018-04-13T11:54:11.394Z,63.02
2018-04-13T11:55:11.314Z,69.37
2018-04-13T11:56:11.257Z,67.00
2018-04-13T11:57:11.145Z,67.61
2018-04-13T11:58:11.060Z,66.97
2018-04-13T11:59:11.021Z,66.91
2018-04-13T12:00:10.900Z,63.67
2018-04-13T12:01:10.845Z,63.60
2018-04-13T12:02:10.776Z,61.04
2018-04-13T12:03:10.645Z,59.20
2018-04-13T12:04:10.567Z,57.22
2018-04-13T12:05:10.484Z,56.91
2018-04-13T12:06:10.430Z,58.25
2018-04-13T12:07:10.319Z,60.08
2018-04-13T12:08:10.239Z,60.97
2018-04-13T12:09:10.156Z,66.20
2018-04-13T12:10:10.077Z,62.96
2018-04-13T12:11:10.022Z,59.94
2018-04-13T12:12:09.912Z,60.08
2018-04-13T12:13:09.922Z,63.35
2018-04-13T12:14:09.748Z,61.94
2018-04-13T12:15:09.678Z,61.04
2018-04-13T12:16:09.617Z,57.89
2018-04-13T12:17:09.503Z,57.62
2018-04-13T12:18:09.429Z,54.47
2018-04-13T12:19:09.342Z,57.02
2018-04-13T12:20:09.260Z,56.47
2018-04-13T12:21:09.207Z,56.25
2018-04-13T12:22:09.109Z,57.21
2018-04-13T12:23:09.016Z,54.47
2018-04-13T12:24:08.938Z,53.70
2018-04-13T12:25:08.855Z,53.59
2018-04-13T12:26:08.803Z,58.99
2018-04-13T12:27:08.799Z,61.11
2018-04-13T12:28:08.615Z,60.31
2018-04-13T12:29:08.531Z,59.50
2018-04-13T12:30:08.453Z,58.96
2018-04-13T12:31:08.399Z,62.64
2018-04-13T12:32:08.289Z,60.91
2018-04-13T12:33:08.207Z,58.92
2018-04-13T12:34:08.217Z,57.03
2018-04-13T12:35:08.044Z,55.46
2018-04-13T12:36:07.990Z,57.00
2018-04-13T12:37:07.882Z,57.13
2018-04-13T12:38:07.800Z,56.98
2018-04-13T12:39:07.717Z,58.15
2018-04-13T12:40:07.638Z,58.86
2018-04-13T12:41:07.679Z,55.04
2018-04-13T12:42:07.470Z,53.72
2018-04-13T12:43:07.392Z,54.43
2018-04-13T12:44:07.314Z,55.45
2018-04-13T12:45:07.226Z,53.23
2018-04-13T12:46:07.173Z,51.93
2018-04-13T12:47:07.062Z,51.76
2018-04-13T12:48:07.076Z,54.16
2018-04-13T12:49:06.915Z,56.66
2018-04-13T12:50:06.821Z,56.82
2018-04-13T12:51:06.768Z,55.86